Date,TemperatureHighF,TemperatureAvgF,TemperatureLowF,DewpointHighF,DewpointAvgF,DewpointLowF,HumidityHigh,HumidityAvg,HumidityLow,PressureMaxIn,PressureMinIn,WindSpeedMaxMPH,WindSpeedAvgMPH,GustSpeedMaxMPH,PrecipitationSumIn
2013-2-1,42.2,29.0,19.7,31.0,15.8,8.0,82,60,38,30.48,30.14,17,2,0,0.00
2013-2-2,36.4,27.5,17.8,34.0,23.5,14.0,96,85,50,30.47,30.23,8,0,0,0.16
2013-2-3,47.8,37.3,27.5,34.0,29.1,25.0,92,74,45,30.23,30.08,10,1,0,0.14
2013-2-4,48.8,35.6,24.2,30.0,25.8,22.0,93,70,40,30.23,30.09,5,0,0,0.00
2013-2-5,58.7,44.6,37.5,44.0,36.7,27.0,95,76,37,30.11,30.01,5,1,0,0.02
2013-2-6,61.2,43.6,32.0,42.0,32.9,24.0,96,72,27,30.27,30.11,7,0,0,0.01
2013-2-7,47.6,42.4,35.1,46.0,39.7,31.0,96,90,80,30.24,30.02,0,0,0,0.37
2013-2-8,52.1,44.1,35.5,46.0,40.6,31.0,97,88,62,30.29,29.98,10,1,0,0.08
2013-2-9,62.1,40.0,25.5,38.0,28.6,18.0,94,71,19,30.40,30.26,2,0,0,0.00
2013-2-10,53.9,44.7,35.3,47.0,37.2,27.0,96,78,37,30.36,30.12,12,1,0,1.17
2013-2-11,54.7,49.5,39.7,53.0,45.9,38.0,97,88,56,30.18,30.08,7,0,0,0.11
2013-2-12,50.6,41.6,33.3,40.0,35.0,25.0,95,80,37,30.21,29.92,1,0,0,0.26
2013-2-13,47.3,41.5,33.5,44.0,38.8,31.0,97,90,80,30.05,29.77,6,1,0,0.10
2013-2-14,52.8,39.4,31.7,35.0,31.7,29.0,93,76,44,30.15,30.05,6,0,0,0.00
2013-2-15,56.4,38.7,27.3,45.0,33.0,26.0,95,82,41,30.21,30.08,5,0,0,0.05
2013-2-16,34.3,30.2,24.6,30.0,21.2,13.0,93,71,47,30.22,30.06,9,1,0,0.00
2013-2-17,39.3,28.2,19.6,20.0,13.5,10.0,79,56,35,30.39,30.24,7,1,0,0.00
2013-2-18,55.3,38.8,20.9,30.0,23.7,18.0,88,59,36,30.45,30.18,15,2,0,0.00
2013-2-19,50.7,42.7,33.9,42.0,28.8,14.0,94,62,30,30.24,30.04,11,2,0,0.79
2013-2-20,44.3,32.7,23.6,21.0,16.0,9.0,77,53,26,30.29,30.23,7,0,0,0.00
2013-2-21,64.4,41.5,24.5,43.0,25.2,15.0,95,60,18,30.30,30.05,6,0,0,0.68
2013-2-22,47.8,44.3,41.0,46.0,42.4,40.0,96,93,88,30.20,30.07,2,0,0,0.93
2013-2-23,58.4,47.9,41.0,53.0,45.9,39.0,97,93,81,30.08,29.89,5,0,0,0.38
2013-2-24,58.7,41.6,30.5,39.0,32.6,29.0,97,75,35,30.11,29.97,6,0,0,0.01
2013-2-25,52.0,41.6,31.1,42.0,34.2,28.0,91,77,49,30.11,29.89,4,0,0,0.00
2013-2-26,51.2,45.1,38.4,48.0,41.5,33.0,96,87,72,29.89,29.57,8,2,0,1.56
2013-2-27,51.9,42.3,36.5,39.0,33.1,30.0,92,71,50,29.94,29.79,10,2,0,0.06
2013-2-28,38.2,34.4,32.3,32.0,27.0,25.0,84,74,68,30.09,29.90,8,1,0,0.01